sensor_id;sensor_type;location;lat;lon;timestamp;P1;durP1;ratioP1;P2;durP2;ratioP2
65358;SDS011;52491;45.900;6.346;2024-02-15T00:00:05;3.90;;;2.72;;
65358;SDS011;52491;45.900;6.346;2024-02-15T00:02:33;3.45;;;2.78;;
65358;SDS011;52491;45.900;6.346;2024-02-15T00:04:58;2.67;;;2.20;;
65358;SDS011;52491;45.900;6.346;2024-02-15T00:07:24;3.97;;;2.88;;
65358;SDS011;52491;45.900;6.346;2024-02-15T00:09:51;2.22;;;2.00;;
65358;SDS011;52491;45.900;6.346;2024-02-15T00:12:19;3.67;;;2.20;;
65358;SDS011;52491;45.900;6.346;2024-02-15T00:14:45;2.42;;;2.13;;
65358;SDS011;52491;45.900;6.346;2024-02-15T00:17:11;2.45;;;2.15;;
65358;SDS011;52491;45.900;6.346;2024-02-15T00:19:37;2.63;;;2.22;;
65358;SDS011;52491;45.900;6.346;2024-02-15T00:22:05;2.03;;;1.88;;
65358;SDS011;52491;45.900;6.346;2024-02-15T00:24:31;4.18;;;2.33;;
65358;SDS011;52491;45.900;6.346;2024-02-15T00:26:57;2.03;;;1.58;;
65358;SDS011;52491;45.900;6.346;2024-02-15T00:29:22;3.75;;;2.00;;
65358;SDS011;52491;45.900;6.346;2024-02-15T00:31:50;1.88;;;1.60;;
65358;SDS011;52491;45.900;6.346;2024-02-15T00:34:15;3.20;;;2.20;;
65358;SDS011;52491;45.900;6.346;2024-02-15T00:36:42;2.95;;;1.92;;
65358;SDS011;52491;45.900;6.346;2024-02-15T00:39:09;2.28;;;1.75;;
65358;SDS011;52491;45.900;6.346;2024-02-15T00:41:37;3.50;;;2.10;;
65358;SDS011;52491;45.900;6.346;2024-02-15T00:44:08;2.85;;;1.85;;
65358;SDS011;52491;45.900;6.346;2024-02-15T00:46:36;3.05;;;2.22;;
65358;SDS011;52491;45.900;6.346;2024-02-15T00:49:02;1.90;;;1.65;;
65358;SDS011;52491;45.900;6.346;2024-02-15T00:51:32;2.10;;;1.90;;
65358;SDS011;52491;45.900;6.346;2024-02-15T00:53:59;2.25;;;1.80;;
65358;SDS011;52491;45.900;6.346;2024-02-15T00:56:25;2.00;;;1.80;;
65358;SDS011;52491;45.900;6.346;2024-02-15T00:58:51;2.63;;;1.88;;
65358;SDS011;52491;45.900;6.346;2024-02-15T01:01:17;2.25;;;1.77;;
65358;SDS011;52491;45.900;6.346;2024-02-15T01:03:42;2.03;;;1.58;;
65358;SDS011;52491;45.900;6.346;2024-02-15T01:06:08;2.20;;;1.95;;
65358;SDS011;52491;45.900;6.346;2024-02-15T01:08:34;1.63;;;1.52;;
65358;SDS011;52491;45.900;6.346;2024-02-15T01:10:59;3.28;;;1.85;;
65358;SDS011;52491;45.900;6.346;2024-02-15T01:13:25;2.15;;;1.67;;
65358;SDS011;52491;45.900;6.346;2024-02-15T01:15:50;2.00;;;1.55;;
65358;SDS011;52491;45.900;6.346;2024-02-15T01:18:16;1.55;;;1.45;;
65358;SDS011;52491;45.900;6.346;2024-02-15T01:20:42;1.38;;;1.13;;
65358;SDS011;52491;45.900;6.346;2024-02-15T01:23:07;2.45;;;1.38;;
65358;SDS011;52491;45.900;6.346;2024-02-15T01:25:33;3.15;;;1.95;;
65358;SDS011;52491;45.900;6.346;2024-02-15T01:27:59;2.60;;;1.88;;
65358;SDS011;52491;45.900;6.346;2024-02-15T01:30:26;1.95;;;1.30;;
65358;SDS011;52491;45.900;6.346;2024-02-15T01:32:54;2.25;;;1.60;;
65358;SDS011;52491;45.900;6.346;2024-02-15T01:35:20;1.65;;;1.20;;
65358;SDS011;52491;45.900;6.346;2024-02-15T01:37:45;1.58;;;1.02;;
65358;SDS011;52491;45.900;6.346;2024-02-15T01:40:11;1.90;;;1.38;;
65358;SDS011;52491;45.900;6.346;2024-02-15T01:42:38;1.70;;;1.27;;
65358;SDS011;52491;45.900;6.346;2024-02-15T01:45:05;1.05;;;0.90;;
65358;SDS011;52491;45.900;6.346;2024-02-15T01:47:31;1.40;;;1.30;;
65358;SDS011;52491;45.900;6.346;2024-02-15T01:49:57;1.42;;;1.33;;
65358;SDS011;52491;45.900;6.346;2024-02-15T01:52:23;1.98;;;1.23;;
65358;SDS011;52491;45.900;6.346;2024-02-15T01:54:50;1.30;;;1.20;;
65358;SDS011;52491;45.900;6.346;2024-02-15T01:57:18;1.60;;;1.50;;
65358;SDS011;52491;45.900;6.346;2024-02-15T01:59:49;1.45;;;1.20;;
65358;SDS011;52491;45.900;6.346;2024-02-15T02:02:17;1.08;;;0.98;;
65358;SDS011;52491;45.900;6.346;2024-02-15T02:04:45;1.65;;;1.15;;
65358;SDS011;52491;45.900;6.346;2024-02-15T02:07:11;1.10;;;1.00;;
65358;SDS011;52491;45.900;6.346;2024-02-15T02:09:37;2.35;;;1.65;;
65358;SDS011;52491;45.900;6.346;2024-02-15T02:12:03;1.52;;;1.00;;
65358;SDS011;52491;45.900;6.346;2024-02-15T02:14:29;1.63;;;1.10;;
65358;SDS011;52491;45.900;6.346;2024-02-15T02:16:55;2.03;;;1.50;;
65358;SDS011;52491;45.900;6.346;2024-02-15T02:19:20;1.63;;;1.23;;
65358;SDS011;52491;45.900;6.346;2024-02-15T02:21:46;1.25;;;0.98;;
65358;SDS011;52491;45.900;6.346;2024-02-15T02:24:18;1.48;;;1.10;;
65358;SDS011;52491;45.900;6.346;2024-02-15T02:26:47;1.75;;;0.93;;
65358;SDS011;52491;45.900;6.346;2024-02-15T02:29:15;1.48;;;1.23;;
65358;SDS011;52491;45.900;6.346;2024-02-15T02:31:41;2.08;;;1.00;;
65358;SDS011;52491;45.900;6.346;2024-02-15T02:34:08;1.25;;;0.90;;
65358;SDS011;52491;45.900;6.346;2024-02-15T02:36:34;2.13;;;1.05;;
65358;SDS011;52491;45.900;6.346;2024-02-15T02:39:00;1.30;;;1.00;;
65358;SDS011;52491;45.900;6.346;2024-02-15T02:41:27;1.55;;;1.15;;
65358;SDS011;52491;45.900;6.346;2024-02-15T02:43:54;0.82;;;0.82;;
65358;SDS011;52491;45.900;6.346;2024-02-15T02:46:21;1.45;;;0.82;;
65358;SDS011;52491;45.900;6.346;2024-02-15T02:48:46;1.75;;;1.00;;
65358;SDS011;52491;45.900;6.346;2024-02-15T02:51:12;1.55;;;1.00;;
65358;SDS011;52491;45.900;6.346;2024-02-15T02:53:38;1.88;;;1.02;;
65358;SDS011;52491;45.900;6.346;2024-02-15T02:56:04;1.83;;;1.00;;
65358;SDS011;52491;45.900;6.346;2024-02-15T02:58:29;0.82;;;0.80;;
65358;SDS011;52491;45.900;6.346;2024-02-15T03:00:55;1.27;;;0.77;;
65358;SDS011;52491;45.900;6.346;2024-02-15T03:03:25;1.05;;;0.82;;
65358;SDS011;52491;45.900;6.346;2024-02-15T03:05:51;1.65;;;1.05;;
65358;SDS011;52491;45.900;6.346;2024-02-15T03:08:17;1.40;;;0.95;;
65358;SDS011;52491;45.900;6.346;2024-02-15T03:10:43;1.20;;;1.00;;
65358;SDS011;52491;45.900;6.346;2024-02-15T03:13:09;1.70;;;0.95;;
65358;SDS011;52491;45.900;6.346;2024-02-15T03:15:35;1.00;;;0.90;;
65358;SDS011;52491;45.900;6.346;2024-02-15T03:18:01;1.42;;;0.90;;
65358;SDS011;52491;45.900;6.346;2024-02-15T03:20:31;1.15;;;0.70;;
65358;SDS011;52491;45.900;6.346;2024-02-15T03:22:59;2.75;;;0.90;;
65358;SDS011;52491;45.900;6.346;2024-02-15T03:25:26;1.83;;;0.70;;
65358;SDS011;52491;45.900;6.346;2024-02-15T03:27:54;1.00;;;0.80;;
65358;SDS011;52491;45.900;6.346;2024-02-15T03:30:22;1.33;;;1.20;;
65358;SDS011;52491;45.900;6.346;2024-02-15T03:32:49;1.15;;;0.75;;
65358;SDS011;52491;45.900;6.346;2024-02-15T03:35:16;0.90;;;0.70;;
65358;SDS011;52491;45.900;6.346;2024-02-15T03:37:43;0.80;;;0.80;;
65358;SDS011;52491;45.900;6.346;2024-02-15T03:40:09;0.77;;;0.77;;
65358;SDS011;52491;45.900;6.346;2024-02-15T03:42:35;0.80;;;0.80;;
65358;SDS011;52491;45.900;6.346;2024-02-15T03:45:03;0.80;;;0.77;;
65358;SDS011;52491;45.900;6.346;2024-02-15T03:47:32;1.00;;;0.75;;
65358;SDS011;52491;45.900;6.346;2024-02-15T03:49:59;1.52;;;0.63;;
65358;SDS011;52491;45.900;6.346;2024-02-15T03:52:24;2.65;;;0.77;;
65358;SDS011;52491;45.900;6.346;2024-02-15T03:54:50;0.52;;;0.52;;
65358;SDS011;52491;45.900;6.346;2024-02-15T03:57:18;2.67;;;1.00;;
65358;SDS011;52491;45.900;6.346;2024-02-15T03:59:46;1.02;;;0.82;;
65358;SDS011;52491;45.900;6.346;2024-02-15T04:02:15;0.65;;;0.65;;
65358;SDS011;52491;45.900;6.346;2024-02-15T04:04:41;1.00;;;0.82;;
65358;SDS011;52491;45.900;6.346;2024-02-15T04:07:08;0.82;;;0.65;;
65358;SDS011;52491;45.900;6.346;2024-02-15T04:09:36;1.55;;;0.70;;
65358;SDS011;52491;45.900;6.346;2024-02-15T04:12:02;0.65;;;0.65;;
65358;SDS011;52491;45.900;6.346;2024-02-15T04:14:28;0.80;;;0.70;;
65358;SDS011;52491;45.900;6.346;2024-02-15T04:16:54;0.70;;;0.47;;
65358;SDS011;52491;45.900;6.346;2024-02-15T04:19:20;1.38;;;1.00;;
65358;SDS011;52491;45.900;6.346;2024-02-15T04:21:47;0.82;;;0.70;;
65358;SDS011;52491;45.900;6.346;2024-02-15T04:24:13;1.27;;;0.70;;
65358;SDS011;52491;45.900;6.346;2024-02-15T04:26:39;1.10;;;1.00;;
65358;SDS011;52491;45.900;6.346;2024-02-15T04:29:05;0.60;;;0.60;;
65358;SDS011;52491;45.900;6.346;2024-02-15T04:31:34;1.00;;;0.73;;
65358;SDS011;52491;45.900;6.346;2024-02-15T04:34:02;0.63;;;0.43;;
65358;SDS011;52491;45.900;6.346;2024-02-15T04:36:28;2.22;;;0.95;;
65358;SDS011;52491;45.900;6.346;2024-02-15T04:38:59;0.80;;;0.80;;
65358;SDS011;52491;45.900;6.346;2024-02-15T04:41:28;0.63;;;0.47;;
65358;SDS011;52491;45.900;6.346;2024-02-15T04:43:54;0.65;;;0.65;;
65358;SDS011;52491;45.900;6.346;2024-02-15T04:46:19;1.38;;;0.90;;
65358;SDS011;52491;45.900;6.346;2024-02-15T04:48:46;1.30;;;0.60;;
65358;SDS011;52491;45.900;6.346;2024-02-15T04:51:15;0.82;;;0.73;;
65358;SDS011;52491;45.900;6.346;2024-02-15T04:53:42;0.70;;;0.50;;
65358;SDS011;52491;45.900;6.346;2024-02-15T04:56:08;1.35;;;0.95;;
65358;SDS011;52491;45.900;6.346;2024-02-15T04:58:39;0.80;;;0.70;;
65358;SDS011;52491;45.900;6.346;2024-02-15T05:01:19;0.70;;;0.63;;
65358;SDS011;52491;45.900;6.346;2024-02-15T05:03:45;1.60;;;0.70;;
65358;SDS011;52491;45.900;6.346;2024-02-15T05:06:11;0.88;;;0.60;;
65358;SDS011;52491;45.900;6.346;2024-02-15T05:08:38;0.75;;;0.60;;
65358;SDS011;52491;45.900;6.346;2024-02-15T05:11:09;1.10;;;0.70;;
65358;SDS011;52491;45.900;6.346;2024-02-15T05:13:40;2.00;;;0.60;;
65358;SDS011;52491;45.900;6.346;2024-02-15T05:16:06;0.80;;;0.55;;
65358;SDS011;52491;45.900;6.346;2024-02-15T05:18:32;1.50;;;0.90;;
65358;SDS011;52491;45.900;6.346;2024-02-15T05:21:00;3.58;;;0.75;;
65358;SDS011;52491;45.900;6.346;2024-02-15T05:23:26;2.05;;;0.82;;
65358;SDS011;52491;45.900;6.346;2024-02-15T05:25:51;0.95;;;0.80;;
65358;SDS011;52491;45.900;6.346;2024-02-15T05:28:19;1.00;;;0.60;;
65358;SDS011;52491;45.900;6.346;2024-02-15T05:31:17;0.70;;;0.60;;
65358;SDS011;52491;45.900;6.346;2024-02-15T05:33:42;0.95;;;0.68;;
65358;SDS011;52491;45.900;6.346;2024-02-15T05:36:12;1.40;;;0.95;;
65358;SDS011;52491;45.900;6.346;2024-02-15T05:38:39;1.17;;;0.60;;
65358;SDS011;52491;45.900;6.346;2024-02-15T05:41:05;1.05;;;0.73;;
65358;SDS011;52491;45.900;6.346;2024-02-15T05:43:34;0.60;;;0.60;;
65358;SDS011;52491;45.900;6.346;2024-02-15T05:46:02;1.20;;;0.50;;
65358;SDS011;52491;45.900;6.346;2024-02-15T05:48:28;1.67;;;0.60;;
65358;SDS011;52491;45.900;6.346;2024-02-15T05:50:55;4.20;;;2.90;;
65358;SDS011;52491;45.900;6.346;2024-02-15T05:53:23;5.80;;;4.03;;
65358;SDS011;52491;45.900;6.346;2024-02-15T05:55:52;5.40;;;3.30;;
65358;SDS011;52491;45.900;6.346;2024-02-15T05:58:17;6.55;;;3.05;;
65358;SDS011;52491;45.900;6.346;2024-02-15T06:00:43;4.32;;;2.75;;
65358;SDS011;52491;45.900;6.346;2024-02-15T06:03:10;3.65;;;2.50;;
65358;SDS011;52491;45.900;6.346;2024-02-15T06:05:37;6.30;;;2.67;;
65358;SDS011;52491;45.900;6.346;2024-02-15T06:08:03;3.47;;;2.55;;
65358;SDS011;52491;45.900;6.346;2024-02-15T06:10:29;3.88;;;2.38;;
65358;SDS011;52491;45.900;6.346;2024-02-15T06:12:56;3.78;;;1.90;;
65358;SDS011;52491;45.900;6.346;2024-02-15T06:15:23;2.42;;;2.22;;
65358;SDS011;52491;45.900;6.346;2024-02-15T06:17:49;4.10;;;2.58;;
65358;SDS011;52491;45.900;6.346;2024-02-15T06:20:15;2.92;;;1.90;;
65358;SDS011;52491;45.900;6.346;2024-02-15T06:22:43;4.97;;;1.90;;
65358;SDS011;52491;45.900;6.346;2024-02-15T06:25:09;4.13;;;2.35;;
65358;SDS011;52491;45.900;6.346;2024-02-15T06:27:36;5.13;;;1.90;;
65358;SDS011;52491;45.900;6.346;2024-02-15T06:30:06;3.30;;;1.90;;
65358;SDS011;52491;45.900;6.346;2024-02-15T06:32:33;3.75;;;1.90;;
65358;SDS011;52491;45.900;6.346;2024-02-15T06:35:00;3.95;;;2.10;;
65358;SDS011;52491;45.900;6.346;2024-02-15T06:37:39;3.72;;;2.05;;
65358;SDS011;52491;45.900;6.346;2024-02-15T06:40:08;2.70;;;1.60;;
65358;SDS011;52491;45.900;6.346;2024-02-15T06:42:35;4.55;;;1.65;;
65358;SDS011;52491;45.900;6.346;2024-02-15T06:45:01;5.88;;;2.15;;
65358;SDS011;52491;45.900;6.346;2024-02-15T06:47:27;1.75;;;1.42;;
65358;SDS011;52491;45.900;6.346;2024-02-15T06:49:52;5.75;;;1.88;;
65358;SDS011;52491;45.900;6.346;2024-02-15T06:52:19;12.90;;;1.85;;
65358;SDS011;52491;45.900;6.346;2024-02-15T06:54:45;2.50;;;1.55;;
65358;SDS011;52491;45.900;6.346;2024-02-15T06:57:11;4.10;;;1.73;;
65358;SDS011;52491;45.900;6.346;2024-02-15T06:59:36;2.47;;;1.27;;
65358;SDS011;52491;45.900;6.346;2024-02-15T07:02:04;2.28;;;1.63;;
65358;SDS011;52491;45.900;6.346;2024-02-15T07:04:31;1.75;;;1.20;;
65358;SDS011;52491;45.900;6.346;2024-02-15T07:06:57;2.13;;;1.60;;
65358;SDS011;52491;45.900;6.346;2024-02-15T07:09:25;4.35;;;2.08;;
65358;SDS011;52491;45.900;6.346;2024-02-15T07:11:51;3.25;;;1.90;;
65358;SDS011;52491;45.900;6.346;2024-02-15T07:14:17;3.45;;;1.80;;
65358;SDS011;52491;45.900;6.346;2024-02-15T07:16:44;2.15;;;1.67;;
65358;SDS011;52491;45.900;6.346;2024-02-15T07:19:11;2.25;;;1.73;;
65358;SDS011;52491;45.900;6.346;2024-02-15T07:21:36;4.38;;;1.88;;
65358;SDS011;52491;45.900;6.346;2024-02-15T07:24:03;1.67;;;1.35;;
65358;SDS011;52491;45.900;6.346;2024-02-15T07:26:30;2.00;;;1.40;;
65358;SDS011;52491;45.900;6.346;2024-02-15T07:28:55;1.98;;;1.77;;
65358;SDS011;52491;45.900;6.346;2024-02-15T07:31:22;2.92;;;1.80;;
65358;SDS011;52491;45.900;6.346;2024-02-15T07:33:52;2.40;;;1.75;;
65358;SDS011;52491;45.900;6.346;2024-02-15T07:36:19;2.25;;;1.50;;
65358;SDS011;52491;45.900;6.346;2024-02-15T07:38:46;2.00;;;1.50;;
65358;SDS011;52491;45.900;6.346;2024-02-15T07:41:13;2.42;;;1.83;;
65358;SDS011;52491;45.900;6.346;2024-02-15T07:43:40;2.30;;;1.65;;
65358;SDS011;52491;45.900;6.346;2024-02-15T07:46:06;2.42;;;1.40;;
65358;SDS011;52491;45.900;6.346;2024-02-15T07:48:32;3.03;;;1.92;;
65358;SDS011;52491;45.900;6.346;2024-02-15T07:50:58;1.50;;;1.40;;
65358;SDS011;52491;45.900;6.346;2024-02-15T07:53:24;1.65;;;1.50;;
65358;SDS011;52491;45.900;6.346;2024-02-15T07:55:50;2.78;;;2.03;;
65358;SDS011;52491;45.900;6.346;2024-02-15T07:58:16;2.60;;;1.63;;
65358;SDS011;52491;45.900;6.346;2024-02-15T08:00:44;3.50;;;2.00;;
65358;SDS011;52491;45.900;6.346;2024-02-15T08:03:11;1.80;;;1.45;;
65358;SDS011;52491;45.900;6.346;2024-02-15T08:05:37;2.13;;;1.85;;
65358;SDS011;52491;45.900;6.346;2024-02-15T08:08:03;2.05;;;1.85;;
65358;SDS011;52491;45.900;6.346;2024-02-15T08:10:29;2.72;;;1.73;;
65358;SDS011;52491;45.900;6.346;2024-02-15T08:12:55;3.70;;;2.22;;
65358;SDS011;52491;45.900;6.346;2024-02-15T08:15:23;2.97;;;2.05;;
65358;SDS011;52491;45.900;6.346;2024-02-15T08:17:49;3.47;;;1.80;;
65358;SDS011;52491;45.900;6.346;2024-02-15T08:20:15;2.15;;;1.88;;
65358;SDS011;52491;45.900;6.346;2024-02-15T08:22:42;2.78;;;1.75;;
65358;SDS011;52491;45.900;6.346;2024-02-15T08:25:09;2.35;;;2.03;;
65358;SDS011;52491;45.900;6.346;2024-02-15T08:27:44;2.83;;;1.77;;
65358;SDS011;52491;45.900;6.346;2024-02-15T08:30:15;4.65;;;1.80;;
65358;SDS011;52491;45.900;6.346;2024-02-15T08:32:42;2.83;;;1.92;;
65358;SDS011;52491;45.900;6.346;2024-02-15T08:35:09;3.53;;;2.53;;
65358;SDS011;52491;45.900;6.346;2024-02-15T08:37:35;4.28;;;2.53;;
65358;SDS011;52491;45.900;6.346;2024-02-15T08:40:04;2.53;;;2.10;;
65358;SDS011;52491;45.900;6.346;2024-02-15T08:42:40;3.90;;;2.97;;
65358;SDS011;52491;45.900;6.346;2024-02-15T08:45:07;5.22;;;3.03;;
65358;SDS011;52491;45.900;6.346;2024-02-15T08:47:35;5.38;;;3.00;;
65358;SDS011;52491;45.900;6.346;2024-02-15T08:50:03;4.63;;;3.25;;
65358;SDS011;52491;45.900;6.346;2024-02-15T08:52:30;6.50;;;3.75;;
65358;SDS011;52491;45.900;6.346;2024-02-15T08:54:55;5.82;;;3.75;;
65358;SDS011;52491;45.900;6.346;2024-02-15T08:57:24;5.80;;;4.00;;
65358;SDS011;52491;45.900;6.346;2024-02-15T08:59:51;5.60;;;3.40;;
65358;SDS011;52491;45.900;6.346;2024-02-15T09:02:17;7.82;;;3.55;;
65358;SDS011;52491;45.900;6.346;2024-02-15T09:04:43;4.80;;;3.53;;
65358;SDS011;52491;45.900;6.346;2024-02-15T09:07:09;4.25;;;3.58;;
65358;SDS011;52491;45.900;6.346;2024-02-15T09:09:35;4.57;;;3.38;;
65358;SDS011;52491;45.900;6.346;2024-02-15T09:12:02;5.60;;;3.88;;
65358;SDS011;52491;45.900;6.346;2024-02-15T09:14:32;5.50;;;3.15;;
65358;SDS011;52491;45.900;6.346;2024-02-15T09:16:59;3.40;;;2.53;;
65358;SDS011;52491;45.900;6.346;2024-02-15T09:19:25;4.00;;;3.08;;
65358;SDS011;52491;45.900;6.346;2024-02-15T09:21:51;4.20;;;2.88;;
65358;SDS011;52491;45.900;6.346;2024-02-15T09:24:16;3.70;;;2.83;;
65358;SDS011;52491;45.900;6.346;2024-02-15T09:26:42;4.07;;;3.00;;
65358;SDS011;52491;45.900;6.346;2024-02-15T09:29:09;5.15;;;2.97;;
65358;SDS011;52491;45.900;6.346;2024-02-15T09:31:35;6.05;;;3.35;;
65358;SDS011;52491;45.900;6.346;2024-02-15T09:34:01;5.38;;;3.70;;
65358;SDS011;52491;45.900;6.346;2024-02-15T09:36:34;5.05;;;3.08;;
65358;SDS011;52491;45.900;6.346;2024-02-15T09:39:03;4.38;;;3.25;;
65358;SDS011;52491;45.900;6.346;2024-02-15T09:41:29;4.53;;;3.13;;
65358;SDS011;52491;45.900;6.346;2024-02-15T09:43:55;4.05;;;2.90;;
65358;SDS011;52491;45.900;6.346;2024-02-15T09:46:20;4.82;;;3.40;;
65358;SDS011;52491;45.900;6.346;2024-02-15T09:48:47;4.35;;;3.10;;
65358;SDS011;52491;45.900;6.346;2024-02-15T09:51:16;5.15;;;3.33;;
65358;SDS011;52491;45.900;6.346;2024-02-15T09:53:46;6.03;;;2.83;;
65358;SDS011;52491;45.900;6.346;2024-02-15T09:56:13;4.85;;;3.28;;
65358;SDS011;52491;45.900;6.346;2024-02-15T09:58:40;3.15;;;2.45;;
65358;SDS011;52491;45.900;6.346;2024-02-15T10:01:06;5.15;;;3.05;;
65358;SDS011;52491;45.900;6.346;2024-02-15T10:03:37;5.03;;;3.20;;
65358;SDS011;52491;45.900;6.346;2024-02-15T10:06:05;3.80;;;2.72;;
65358;SDS011;52491;45.900;6.346;2024-02-15T10:08:31;3.97;;;2.30;;
65358;SDS011;52491;45.900;6.346;2024-02-15T10:13:45;4.10;;;2.60;;
65358;SDS011;52491;45.900;6.346;2024-02-15T10:16:15;2.83;;;2.28;;
65358;SDS011;52491;45.900;6.346;2024-02-15T10:18:42;3.65;;;2.75;;
65358;SDS011;52491;45.900;6.346;2024-02-15T10:21:08;4.55;;;3.00;;
65358;SDS011;52491;45.900;6.346;2024-02-15T10:23:34;3.47;;;2.38;;
65358;SDS011;52491;45.900;6.346;2024-02-15T10:25:59;4.60;;;2.88;;
65358;SDS011;52491;45.900;6.346;2024-02-15T10:28:27;2.95;;;2.38;;
65358;SDS011;52491;45.900;6.346;2024-02-15T10:30:54;3.72;;;2.35;;
65358;SDS011;52491;45.900;6.346;2024-02-15T10:33:21;3.58;;;2.67;;
65358;SDS011;52491;45.900;6.346;2024-02-15T10:36:04;3.78;;;2.63;;
65358;SDS011;52491;45.900;6.346;2024-02-15T10:38:31;4.10;;;2.53;;
65358;SDS011;52491;45.900;6.346;2024-02-15T10:41:02;2.60;;;2.03;;
65358;SDS011;52491;45.900;6.346;2024-02-15T10:43:30;3.35;;;2.17;;
65358;SDS011;52491;45.900;6.346;2024-02-15T10:45:57;3.78;;;2.50;;
65358;SDS011;52491;45.900;6.346;2024-02-15T10:48:24;2.75;;;2.22;;
65358;SDS011;52491;45.900;6.346;2024-02-15T10:50:50;2.65;;;2.00;;
65358;SDS011;52491;45.900;6.346;2024-02-15T10:53:26;2.60;;;2.03;;
65358;SDS011;52491;45.900;6.346;2024-02-15T10:55:59;3.72;;;2.33;;
65358;SDS011;52491;45.900;6.346;2024-02-15T10:58:41;2.90;;;1.92;;
65358;SDS011;52491;45.900;6.346;2024-02-15T11:01:12;2.25;;;1.70;;
65358;SDS011;52491;45.900;6.346;2024-02-15T11:03:44;2.40;;;1.63;;
65358;SDS011;52491;45.900;6.346;2024-02-15T11:06:18;2.90;;;1.70;;
65358;SDS011;52491;45.900;6.346;2024-02-15T11:08:47;2.75;;;2.22;;
65358;SDS011;52491;45.900;6.346;2024-02-15T11:11:14;3.70;;;1.83;;
65358;SDS011;52491;45.900;6.346;2024-02-15T11:13:40;2.35;;;1.65;;
65358;SDS011;52491;45.900;6.346;2024-02-15T11:16:08;2.83;;;2.08;;
65358;SDS011;52491;45.900;6.346;2024-02-15T11:21:01;3.05;;;2.38;;
65358;SDS011;52491;45.900;6.346;2024-02-15T11:23:26;2.53;;;1.92;;
65358;SDS011;52491;45.900;6.346;2024-02-15T11:25:52;5.80;;;2.28;;
65358;SDS011;52491;45.900;6.346;2024-02-15T11:30:45;3.15;;;2.13;;
65358;SDS011;52491;45.900;6.346;2024-02-15T11:35:39;3.08;;;1.77;;
65358;SDS011;52491;45.900;6.346;2024-02-15T11:41:07;2.55;;;2.08;;
65358;SDS011;52491;45.900;6.346;2024-02-15T11:46:19;2.63;;;1.67;;
65358;SDS011;52491;45.900;6.346;2024-02-15T11:48:45;1.85;;;1.10;;
65358;SDS011;52491;45.900;6.346;2024-02-15T11:53:39;5.32;;;1.58;;
65358;SDS011;52491;45.900;6.346;2024-02-15T11:56:05;4.40;;;1.70;;
65358;SDS011;52491;45.900;6.346;2024-02-15T11:58:34;2.13;;;1.60;;
65358;SDS011;52491;45.900;6.346;2024-02-15T12:01:00;4.45;;;2.10;;
65358;SDS011;52491;45.900;6.346;2024-02-15T12:03:51;11.77;;;2.50;;
65358;SDS011;52491;45.900;6.346;2024-02-15T12:06:19;2.25;;;1.92;;
65358;SDS011;52491;45.900;6.346;2024-02-15T12:08:46;3.47;;;1.63;;
65358;SDS011;52491;45.900;6.346;2024-02-15T12:11:13;2.88;;;1.70;;
65358;SDS011;52491;45.900;6.346;2024-02-15T12:13:40;4.80;;;2.58;;
65358;SDS011;52491;45.900;6.346;2024-02-15T12:16:07;15.02;;;3.60;;
65358;SDS011;52491;45.900;6.346;2024-02-15T12:18:33;10.27;;;3.42;;
65358;SDS011;52491;45.900;6.346;2024-02-15T12:21:00;2.63;;;2.10;;
65358;SDS011;52491;45.900;6.346;2024-02-15T12:23:28;7.07;;;2.50;;
65358;SDS011;52491;45.900;6.346;2024-02-15T12:25:58;3.60;;;2.17;;
65358;SDS011;52491;45.900;6.346;2024-02-15T12:28:25;3.90;;;1.90;;
65358;SDS011;52491;45.900;6.346;2024-02-15T12:33:18;2.28;;;1.50;;
65358;SDS011;52491;45.900;6.346;2024-02-15T12:35:45;8.68;;;2.15;;
65358;SDS011;52491;45.900;6.346;2024-02-15T12:38:12;2.20;;;1.60;;
65358;SDS011;52491;45.900;6.346;2024-02-15T12:40:41;3.50;;;2.28;;
65358;SDS011;52491;45.900;6.346;2024-02-15T12:43:08;4.55;;;1.92;;
65358;SDS011;52491;45.900;6.346;2024-02-15T12:45:35;6.95;;;2.05;;
65358;SDS011;52491;45.900;6.346;2024-02-15T12:48:03;2.67;;;1.70;;
65358;SDS011;52491;45.900;6.346;2024-02-15T12:50:30;2.25;;;1.48;;
65358;SDS011;52491;45.900;6.346;2024-02-15T12:52:57;2.60;;;1.75;;
65358;SDS011;52491;45.900;6.346;2024-02-15T12:55:23;3.85;;;1.67;;
65358;SDS011;52491;45.900;6.346;2024-02-15T12:57:50;1.90;;;1.17;;
65358;SDS011;52491;45.900;6.346;2024-02-15T13:00:17;3.45;;;1.50;;
65358;SDS011;52491;45.900;6.346;2024-02-15T13:02:46;3.38;;;2.08;;
65358;SDS011;52491;45.900;6.346;2024-02-15T13:05:14;4.18;;;1.70;;
65358;SDS011;52491;45.900;6.346;2024-02-15T13:07:44;2.15;;;1.45;;
65358;SDS011;52491;45.900;6.346;2024-02-15T13:10:10;2.28;;;1.92;;
65358;SDS011;52491;45.900;6.346;2024-02-15T13:12:36;2.17;;;1.52;;
65358;SDS011;52491;45.900;6.346;2024-02-15T13:15:04;2.45;;;1.48;;
65358;SDS011;52491;45.900;6.346;2024-02-15T13:17:32;4.43;;;1.90;;
65358;SDS011;52491;45.900;6.346;2024-02-15T13:19:59;3.55;;;1.60;;
65358;SDS011;52491;45.900;6.346;2024-02-15T13:22:26;1.90;;;1.50;;
65358;SDS011;52491;45.900;6.346;2024-02-15T13:24:52;1.73;;;1.35;;
65358;SDS011;52491;45.900;6.346;2024-02-15T13:27:17;2.53;;;1.48;;
65358;SDS011;52491;45.900;6.346;2024-02-15T13:29:43;2.28;;;1.60;;
65358;SDS011;52491;45.900;6.346;2024-02-15T13:32:09;3.00;;;1.45;;
65358;SDS011;52491;45.900;6.346;2024-02-15T13:34:37;1.67;;;1.33;;
65358;SDS011;52491;45.900;6.346;2024-02-15T13:37:03;1.45;;;1.33;;
65358;SDS011;52491;45.900;6.346;2024-02-15T13:39:29;1.40;;;1.10;;
65358;SDS011;52491;45.900;6.346;2024-02-15T13:41:56;2.70;;;1.60;;
65358;SDS011;52491;45.900;6.346;2024-02-15T13:44:22;2.30;;;1.60;;
65358;SDS011;52491;45.900;6.346;2024-02-15T13:46:48;2.50;;;1.52;;
65358;SDS011;52491;45.900;6.346;2024-02-15T13:49:15;3.53;;;1.40;;
65358;SDS011;52491;45.900;6.346;2024-02-15T13:51:42;2.63;;;1.45;;
65358;SDS011;52491;45.900;6.346;2024-02-15T13:54:07;1.35;;;0.90;;
65358;SDS011;52491;45.900;6.346;2024-02-15T13:56:33;2.50;;;1.27;;
65358;SDS011;52491;45.900;6.346;2024-02-15T13:58:58;1.83;;;1.50;;
65358;SDS011;52491;45.900;6.346;2024-02-15T14:01:24;1.25;;;0.90;;
65358;SDS011;52491;45.900;6.346;2024-02-15T14:03:50;1.77;;;1.40;;
65358;SDS011;52491;45.900;6.346;2024-02-15T14:06:17;2.67;;;1.50;;
65358;SDS011;52491;45.900;6.346;2024-02-15T14:08:43;1.17;;;1.08;;
65358;SDS011;52491;45.900;6.346;2024-02-15T14:11:09;3.85;;;1.48;;
65358;SDS011;52491;45.900;6.346;2024-02-15T14:13:35;1.88;;;1.33;;
65358;SDS011;52491;45.900;6.346;2024-02-15T14:16:01;1.75;;;1.00;;
65358;SDS011;52491;45.900;6.346;2024-02-15T14:18:28;2.88;;;1.40;;
65358;SDS011;52491;45.900;6.346;2024-02-15T14:20:54;1.85;;;1.50;;
65358;SDS011;52491;45.900;6.346;2024-02-15T14:23:20;1.75;;;1.25;;
65358;SDS011;52491;45.900;6.346;2024-02-15T14:25:45;1.90;;;1.40;;
65358;SDS011;52491;45.900;6.346;2024-02-15T14:28:11;2.05;;;1.30;;
65358;SDS011;52491;45.900;6.346;2024-02-15T14:30:38;1.52;;;1.20;;
65358;SDS011;52491;45.900;6.346;2024-02-15T14:33:05;1.40;;;0.98;;
65358;SDS011;52491;45.900;6.346;2024-02-15T14:35:37;1.35;;;1.17;;
65358;SDS011;52491;45.900;6.346;2024-02-15T14:38:05;2.38;;;1.33;;
65358;SDS011;52491;45.900;6.346;2024-02-15T14:40:34;2.72;;;1.60;;
65358;SDS011;52491;45.900;6.346;2024-02-15T14:43:02;2.20;;;1.42;;
65358;SDS011;52491;45.900;6.346;2024-02-15T14:45:30;1.67;;;1.13;;
65358;SDS011;52491;45.900;6.346;2024-02-15T14:47:58;1.38;;;0.95;;
65358;SDS011;52491;45.900;6.346;2024-02-15T14:50:24;1.75;;;1.20;;
65358;SDS011;52491;45.900;6.346;2024-02-15T14:52:51;1.95;;;1.10;;
65358;SDS011;52491;45.900;6.346;2024-02-15T14:55:19;1.67;;;1.13;;
65358;SDS011;52491;45.900;6.346;2024-02-15T14:57:46;2.05;;;1.20;;
65358;SDS011;52491;45.900;6.346;2024-02-15T15:00:12;1.20;;;1.10;;
65358;SDS011;52491;45.900;6.346;2024-02-15T15:02:40;1.60;;;1.23;;
65358;SDS011;52491;45.900;6.346;2024-02-15T15:05:06;1.10;;;0.95;;
65358;SDS011;52491;45.900;6.346;2024-02-15T15:07:34;5.07;;;1.27;;